createdAt,value
2018-11-02T00:00:19.477Z,96.60
2018-11-02T00:05:21.697Z,96.90
2018-11-02T00:10:39.050Z,97.90
2018-11-02T00:15:41.257Z,97.70
2018-11-02T00:20:43.482Z,97.10
2018-11-02T00:25:45.702Z,96.70
2018-11-02T00:30:47.939Z,96.20
2018-11-02T00:35:50.157Z,94.70
2018-11-02T00:40:52.381Z,95.50
2018-11-02T00:45:54.688Z,93.40
2018-11-02T00:50:56.902Z,94.10
2018-11-02T00:55:59.139Z,96.00
2018-11-02T01:01:01.390Z,95.10
2018-11-02T01:06:03.702Z,96.30
2018-11-02T01:11:05.970Z,95.60
2018-11-02T01:16:08.226Z,96.80
2018-11-02T01:21:10.670Z,97.80
2018-11-02T01:26:12.902Z,97.30
2018-11-02T01:31:15.153Z,95.30
2018-11-02T01:36:17.390Z,96.80
2018-11-02T01:41:19.618Z,99.90
2018-11-02T01:46:21.825Z,99.90
2018-11-02T01:51:24.046Z,99.90
2018-11-02T01:56:26.257Z,99.90
2018-11-02T02:01:28.525Z,99.90
2018-11-02T02:06:30.779Z,99.90
2018-11-02T02:11:33.046Z,99.90
2018-11-02T02:16:35.277Z,99.90
2018-11-02T02:21:37.534Z,99.90
2018-11-02T02:26:39.786Z,98.30
2018-11-02T02:31:42.130Z,98.50
2018-11-02T02:36:44.399Z,99.80
2018-11-02T02:41:46.627Z,98.80
2018-11-02T02:46:48.865Z,97.80
2018-11-02T02:51:51.102Z,96.90
2018-11-02T02:56:53.335Z,98.20
2018-11-02T03:01:55.572Z,99.50
2018-11-02T03:06:57.818Z,99.80
2018-11-02T03:12:00.030Z,99.50
2018-11-02T03:17:02.258Z,99.60
2018-11-02T03:22:04.508Z,98.80
2018-11-02T03:27:06.761Z,98.10
2018-11-02T03:32:09.061Z,98.30
2018-11-02T03:37:11.277Z,97.80
2018-11-02T03:42:13.494Z,98.40
2018-11-02T03:47:15.730Z,98.90
2018-11-02T03:52:17.954Z,98.20
2018-11-02T03:57:20.210Z,98.40
2018-11-02T04:02:22.459Z,97.40
2018-11-02T04:07:24.693Z,97.10
2018-11-02T04:12:27.202Z,97.90
2018-11-02T04:17:32.393Z,96.60
2018-11-02T04:22:36.482Z,97.80
2018-11-02T04:27:38.694Z,99.30
2018-11-02T04:32:40.918Z,99.90
2018-11-02T04:37:43.171Z,99.90
2018-11-02T04:42:45.385Z,99.90
2018-11-02T04:47:47.658Z,99.90
2018-11-02T04:52:49.882Z,99.90
2018-11-02T04:57:52.151Z,99.90
2018-11-02T05:02:54.500Z,99.90
2018-11-02T05:07:56.752Z,99.90
2018-11-02T05:12:59.021Z,99.90
2018-11-02T05:18:01.245Z,99.90
2018-11-02T05:23:03.814Z,99.90
2018-11-02T05:28:06.077Z,99.90
2018-11-02T05:33:08.332Z,99.90
2018-11-02T05:38:10.594Z,99.90
2018-11-02T05:43:12.869Z,99.90
2018-11-02T05:48:15.214Z,99.90
2018-11-02T05:53:17.450Z,99.90
2018-11-02T05:58:19.670Z,99.90
2018-11-02T06:03:21.933Z,99.90
2018-11-02T06:08:24.136Z,99.90
2018-11-02T06:13:26.424Z,99.90
2018-11-02T06:18:28.579Z,99.90
2018-11-02T06:23:30.794Z,99.90
2018-11-02T06:28:33.066Z,99.90
2018-11-02T06:33:35.529Z,99.90
2018-11-02T06:38:37.803Z,99.90
2018-11-02T06:43:39.953Z,99.90
2018-11-02T06:48:42.174Z,99.90
2018-11-02T06:53:44.422Z,99.90
2018-11-02T06:58:46.694Z,99.90
2018-11-02T07:03:48.955Z,99.90
2018-11-02T07:08:51.201Z,99.90
2018-11-02T07:13:53.423Z,97.00
2018-11-02T07:18:55.700Z,88.90
2018-11-02T07:23:57.943Z,86.60
2018-11-02T07:29:00.186Z,81.70
2018-11-02T07:34:02.517Z,77.80
2018-11-02T07:39:07.229Z,75.40
2018-11-02T07:44:09.652Z,72.60
2018-11-02T07:49:11.893Z,69.60
2018-11-02T07:54:14.142Z,68.60
2018-11-02T07:59:16.390Z,64.40
2018-11-02T08:04:19.126Z,64.50
2018-11-02T08:09:21.384Z,63.90
2018-11-02T08:14:23.634Z,64.60
2018-11-02T08:19:25.897Z,63.60
2018-11-02T08:24:28.215Z,63.30
2018-11-02T08:29:30.385Z,60.70
2018-11-02T08:34:32.654Z,59.70
2018-11-02T08:39:34.902Z,57.10
2018-11-02T08:44:37.145Z,58.10
2018-11-02T08:49:39.392Z,53.30
2018-11-02T08:54:41.663Z,54.50
2018-11-02T08:59:44.169Z,52.90
2018-11-02T09:04:46.396Z,53.00
2018-11-02T09:09:48.654Z,48.50
2018-11-02T09:14:50.887Z,47.60
2018-11-02T09:19:53.338Z,46.10
2018-11-02T09:24:55.586Z,44.80
2018-11-02T09:29:57.786Z,48.80
2018-11-02T09:35:00.014Z,47.20
2018-11-02T09:40:02.282Z,46.70
2018-11-02T09:45:06.172Z,42.20
2018-11-02T09:50:09.210Z,42.10
2018-11-02T09:55:13.142Z,41.60
2018-11-02T10:00:15.385Z,42.70
2018-11-02T10:05:17.610Z,43.30
2018-11-02T10:10:19.851Z,43.80
2018-11-02T10:15:22.102Z,45.50
2018-11-02T10:20:24.331Z,46.20
2018-11-02T10:25:26.594Z,51.40
2018-11-02T10:30:28.858Z,50.40
2018-11-02T10:35:31.290Z,50.20
2018-11-02T10:40:33.830Z,50.10
2018-11-02T10:45:38.350Z,49.40
2018-11-02T10:50:40.614Z,50.90
2018-11-02T10:55:42.880Z,48.80
2018-11-02T11:00:51.167Z,49.00
2018-11-02T11:05:53.298Z,49.90
2018-11-02T11:10:55.590Z,48.80
2018-11-02T11:15:57.810Z,49.60
2018-11-02T11:21:00.074Z,49.80
2018-11-02T11:26:02.259Z,48.40
2018-11-02T11:31:04.497Z,47.60
2018-11-02T11:36:07.043Z,46.60
2018-11-02T11:41:09.290Z,47.40
2018-11-02T11:46:11.514Z,45.90
2018-11-02T11:51:13.783Z,47.30
2018-11-02T11:56:16.017Z,49.20
2018-11-02T12:01:18.260Z,48.00
2018-11-02T12:06:20.502Z,47.80
2018-11-02T12:11:22.753Z,52.60
2018-11-02T12:16:27.050Z,48.70
2018-11-02T12:21:29.321Z,49.60
2018-11-02T12:26:31.567Z,46.50
2018-11-02T12:31:33.841Z,47.80
2018-11-02T12:36:36.085Z,46.80
2018-11-02T12:41:38.663Z,46.10
2018-11-02T12:46:40.910Z,45.50
2018-11-02T12:51:43.182Z,45.70
2018-11-02T12:56:45.459Z,45.60
2018-11-02T13:01:47.682Z,45.50
2018-11-02T13:06:49.947Z,45.40
2018-11-02T13:11:52.290Z,44.80
2018-11-02T13:16:54.502Z,46.50
2018-11-02T13:21:56.862Z,47.20
2018-11-02T13:26:59.012Z,46.60
2018-11-02T13:32:01.343Z,46.50
2018-11-02T13:37:03.554Z,47.20
2018-11-02T13:42:05.817Z,47.80
2018-11-02T13:47:08.066Z,48.30
2018-11-02T13:52:10.797Z,46.70
2018-11-02T13:57:13.047Z,47.50
2018-11-02T14:02:15.281Z,47.30
2018-11-02T14:07:17.526Z,48.10
2018-11-02T14:12:19.786Z,48.00
2018-11-02T14:17:22.060Z,47.40
2018-11-02T14:22:24.299Z,47.10
2018-11-02T14:27:26.566Z,49.40
2018-11-02T14:32:28.810Z,48.00
2018-11-02T14:37:31.054Z,47.90
2018-11-02T14:42:33.392Z,48.90
2018-11-02T14:47:35.679Z,49.80
2018-11-02T14:52:38.266Z,50.80
2018-11-02T14:57:40.537Z,50.80
2018-11-02T15:02:42.790Z,50.70
2018-11-02T15:07:45.026Z,50.80
2018-11-02T15:12:47.266Z,51.00
2018-11-02T15:17:49.501Z,51.00
2018-11-02T15:22:51.758Z,52.30
2018-11-02T15:27:56.325Z,53.50
2018-11-02T15:32:58.651Z,52.90
2018-11-02T15:38:00.960Z,52.40
2018-11-02T15:43:03.296Z,52.60
2018-11-02T15:48:05.625Z,53.10
2018-11-02T15:53:07.905Z,53.80
2018-11-02T15:58:10.180Z,55.00
2018-11-02T16:03:12.559Z,55.40
2018-11-02T16:08:14.839Z,56.90
2018-11-02T16:13:17.166Z,57.00
2018-11-02T16:18:19.469Z,56.40
2018-11-02T16:23:21.789Z,57.10
2018-11-02T16:28:24.194Z,57.60
2018-11-02T16:33:26.547Z,57.90
2018-11-02T16:38:28.922Z,57.70
2018-11-02T16:43:32.548Z,58.20
2018-11-02T16:48:35.738Z,58.40
2018-11-02T16:53:44.439Z,59.00
2018-11-02T16:58:53.024Z,59.40
2018-11-02T17:04:01.476Z,60.40
2018-11-02T17:09:11.887Z,62.10
2018-11-02T17:14:16.030Z,62.00
2018-11-02T17:19:24.515Z,62.50
2018-11-02T17:24:26.926Z,62.70
2018-11-02T17:29:29.311Z,63.10
2018-11-02T17:34:31.694Z,64.30
2018-11-02T17:39:34.268Z,64.90
2018-11-02T17:44:36.759Z,66.00
2018-11-02T17:49:39.150Z,65.30
2018-11-02T17:54:41.584Z,67.10
2018-11-02T17:59:43.978Z,70.40
2018-11-02T18:04:46.545Z,69.70
2018-11-02T18:09:48.871Z,69.20
2018-11-02T18:14:51.207Z,70.30
2018-11-02T18:19:53.490Z,70.70
2018-11-02T18:24:55.761Z,69.10
2018-11-02T18:29:58.026Z,67.60
2018-11-02T18:35:00.500Z,68.60
2018-11-02T18:40:02.683Z,68.90
2018-11-02T18:45:06.900Z,67.60
2018-11-02T18:50:09.542Z,67.40
2018-11-02T18:55:11.838Z,66.10
2018-11-02T19:00:14.161Z,65.30
2018-11-02T19:05:17.562Z,65.10
2018-11-02T19:10:19.842Z,64.60
2018-11-02T19:15:22.129Z,64.70
2018-11-02T19:20:24.556Z,65.30
2018-11-02T19:25:26.871Z,65.20
2018-11-02T19:30:29.136Z,65.30
2018-11-02T19:35:31.508Z,65.00
2018-11-02T19:40:33.800Z,64.70
2018-11-02T19:45:36.074Z,64.90
2018-11-02T19:50:39.250Z,65.50
2018-11-02T19:55:41.632Z,67.10
2018-11-02T20:00:43.856Z,68.40
2018-11-02T20:05:46.132Z,68.20
2018-11-02T20:10:48.396Z,67.50
2018-11-02T20:15:50.657Z,66.70
2018-11-02T20:20:52.968Z,67.40
2018-11-02T20:25:55.660Z,68.60
2018-11-02T20:30:57.924Z,67.70
2018-11-02T20:36:00.486Z,67.00
2018-11-02T20:41:02.862Z,67.40
2018-11-02T20:46:05.407Z,66.70
2018-11-02T20:51:07.875Z,66.70
2018-11-02T20:56:10.432Z,67.10
2018-11-02T21:01:12.726Z,66.10
2018-11-02T21:06:15.016Z,66.00
2018-11-02T21:11:17.347Z,66.40
2018-11-02T21:16:19.697Z,67.20
2018-11-02T21:21:21.867Z,67.50
2018-11-02T21:26:24.225Z,67.60
2018-11-02T21:31:26.481Z,67.60
2018-11-02T21:36:28.754Z,67.40
2018-11-02T21:41:30.990Z,66.90
2018-11-02T21:46:33.471Z,67.80
2018-11-02T21:51:35.722Z,66.90
2018-11-02T21:56:38.021Z,67.20
2018-11-02T22:01:40.190Z,67.80
2018-11-02T22:06:42.433Z,67.70
2018-11-02T22:11:44.657Z,68.40
2018-11-02T22:16:47.165Z,68.90
2018-11-02T22:21:49.401Z,68.30
2018-11-02T22:26:51.857Z,69.00
2018-11-02T22:31:54.094Z,69.10
2018-11-02T22:36:56.326Z,69.70
2018-11-02T22:41:58.545Z,70.10
2018-11-02T22:47:00.858Z,70.20
2018-11-02T22:52:03.078Z,69.60
2018-11-02T22:57:05.325Z,69.70
2018-11-02T23:02:07.539Z,69.30
2018-11-02T23:07:09.747Z,68.10
2018-11-02T23:12:11.973Z,66.20
2018-11-02T23:17:14.314Z,65.30
2018-11-02T23:22:16.482Z,65.00
2018-11-02T23:27:18.746Z,63.90
2018-11-02T23:32:20.981Z,63.70
2018-11-02T23:37:23.249Z,64.70
2018-11-02T23:42:25.466Z,64.70
2018-11-02T23:47:27.863Z,63.40
2018-11-02T23:52:30.107Z,62.40
2018-11-02T23:57:32.354Z,63.50
